Time;durP1;ratioP1;P1;durP2;ratioP2;P2;SDS_P1;SDS_P2;PMS_P1;PMS_P2;Temp;Humidity;BMP_temperature;BMP_pressure;BME280_temperature;BME280_humidity;BME280_pressure;Samples;Min_cycle;Max_cycle;Signal;HPM_P1;HPM_P2
2021/12/07 00:02:09;;;;;;;8.88;3.30;;;;;;;4.25;100.00;93668.78;5066959;28;20552;-72
2021/12/07 00:04:38;;;;;;;4.22;2.80;;;;;;;4.38;100.00;93670.38;5066049;28;20050;-73
2021/12/07 00:07:06;;;;;;;7.25;3.72;;;;;;;4.31;100.00;93657.56;5067125;28;20036;-73
2021/12/07 00:09:33;;;;;;;5.55;3.10;;;;;;;4.38;100.00;93673.75;5065757;28;20044;-73
2021/12/07 00:12:04;;;;;;;5.80;3.13;;;;;;;4.32;100.00;93664.31;5067576;28;20032;-72
2021/12/07 00:14:38;;;;;;;5.68;3.22;;;;;;;4.33;100.00;93654.78;5072262;28;20105;-73
2021/12/07 00:17:05;;;;;;;5.13;2.70;;;;;;;4.41;100.00;93649.28;5073534;28;20115;-73
2021/12/07 00:19:33;;;;;;;4.57;3.20;;;;;;;4.44;100.00;93679.03;5070992;28;20036;-72
2021/12/07 00:22:01;;;;;;;6.43;3.80;;;;;;;4.59;100.00;93679.38;5071153;28;20131;-72
2021/12/07 00:24:28;;;;;;;11.63;4.55;;;;;;;4.60;100.00;93680.97;5067931;28;20063;-72
2021/12/07 00:26:55;;;;;;;6.07;3.25;;;;;;;4.57;100.00;93681.41;5075935;28;20047;-72
2021/12/07 00:29:22;;;;;;;7.28;3.70;;;;;;;4.36;100.00;93670.59;5071446;28;20450;-73
2021/12/07 00:32:06;;;;;;;9.30;3.88;;;;;;;4.38;100.00;93665.22;5068788;28;20131;-72
2021/12/07 00:37:01;;;;;;;3.72;2.50;;;;;;;4.18;100.00;93670.66;5071471;28;20541;-72
2021/12/07 00:39:28;;;;;;;5.00;2.83;;;;;;;4.16;100.00;93680.38;5071647;28;20040;-72
2021/12/07 00:41:55;;;;;;;5.35;2.83;;;;;;;4.14;100.00;93672.09;5070975;28;20070;-72
2021/12/07 00:44:24;;;;;;;6.30;3.30;;;;;;;4.11;100.00;93675.91;5072477;28;20052;-72
2021/12/07 00:46:52;;;;;;;8.70;5.00;;;;;;;4.08;100.00;93662.66;5069514;28;20052;-73
2021/12/07 00:49:20;;;;;;;4.32;2.70;;;;;;;4.10;100.00;93678.69;5069346;28;20041;-72
2021/12/07 00:51:47;;;;;;;5.65;3.80;;;;;;;4.06;100.00;93680.13;5075704;28;20493;-72
2021/12/07 00:54:15;;;;;;;7.68;4.43;;;;;;;3.98;100.00;93679.44;5071373;28;20050;-72
2021/12/07 00:56:42;;;;;;;3.85;2.47;;;;;;;4.01;100.00;93673.81;5068666;28;20135;-72
2021/12/07 00:59:09;;;;;;;4.68;2.55;;;;;;;3.92;100.00;93675.13;5074284;28;20066;-72
2021/12/07 01:01:37;;;;;;;3.75;2.28;;;;;;;3.87;100.00;93681.94;5073969;28;20139;-72
2021/12/07 01:04:05;;;;;;;3.97;2.30;;;;;;;3.74;100.00;93677.75;5071467;28;20042;-72
2021/12/07 01:06:45;;;;;;;4.47;2.97;;;;;;;3.78;100.00;93678.88;5067779;28;20470;-72
2021/12/07 01:24:40;;;;;;;5.75;3.05;;;;;;;3.55;100.00;93675.19;5072698;28;20044;-72
2021/12/07 01:25:55;;;;;;;2.08;1.23;;;;;;;3.09;100.00;93671.31;5070568;28;20576;-72
2021/12/07 01:28:32;;;;;;;1.60;0.98;;;;;;;2.98;100.00;93679.72;5068059;28;20055;-72
2021/12/07 01:31:12;;;;;;;2.70;1.80;;;;;;;2.90;100.00;93661.97;5069154;28;20047;-72
2021/12/07 01:34:56;;;;;;;2.90;1.65;;;;;;;2.88;100.00;93675.03;5072083;28;20066;-72
2021/12/07 01:47:39;;;;;;;2.70;1.17;;;;;;;2.51;100.00;93659.53;5069172;28;20174;-72
2021/12/07 02:00:55;;;;;;;5.03;1.00;;;;;;;2.32;100.00;93663.03;5074344;28;20054;-73
2021/12/07 02:03:24;;;;;;;1.77;1.05;;;;;;;2.20;100.00;93637.22;5067677;28;20036;-72
2021/12/07 02:05:52;;;;;;;1.70;1.30;;;;;;;2.38;100.00;93639.88;5073471;28;20055;-73
2021/12/07 02:08:21;;;;;;;1.33;1.23;;;;;;;2.39;100.00;93631.13;5068691;28;20082;-74
2021/12/07 02:10:52;;;;;;;2.13;0.93;;;;;;;2.46;100.00;93637.00;5069097;28;20048;-74
2021/12/07 02:14:15;;;;;;;1.60;1.05;;;;;;;2.45;100.00;93635.47;5073230;28;20045;-74
2021/12/07 02:16:12;;;;;;;1.45;1.20;;;;;;;2.47;100.00;93628.31;5066988;28;20091;-74
2021/12/07 02:18:41;;;;;;;2.55;1.27;;;;;;;2.42;100.00;93635.88;5065490;28;20053;-74
2021/12/07 02:21:20;;;;;;;3.05;1.85;;;;;;;2.44;100.00;93613.31;5074605;28;20047;-74
2021/12/07 02:23:53;;;;;;;1.52;1.27;;;;;;;2.44;100.00;93618.44;5066975;28;20039;-74
2021/12/07 02:26:21;;;;;;;7.20;2.15;;;;;;;2.51;100.00;93618.41;5070815;28;20138;-75
2021/12/07 02:28:52;;;;;;;2.25;1.27;;;;;;;2.57;100.00;93611.63;5074341;28;20123;-75
2021/12/07 02:31:21;;;;;;;1.83;1.52;;;;;;;2.55;100.00;93618.78;5066939;28;20131;-75
2021/12/07 02:33:49;;;;;;;4.57;1.65;;;;;;;2.53;100.00;93610.50;5070559;28;20055;-75
2021/12/07 02:36:17;;;;;;;1.70;1.10;;;;;;;2.52;100.00;93603.75;5072178;28;20050;-75
2021/12/07 02:38:44;;;;;;;2.13;1.50;;;;;;;2.37;100.00;93592.03;5069809;28;20051;-75
2021/12/07 02:41:11;;;;;;;2.42;1.55;;;;;;;2.34;100.00;93592.47;5077581;28;20147;-76
2021/12/07 02:43:38;;;;;;;4.03;2.35;;;;;;;2.26;100.00;93595.28;5073566;28;20109;-76
2021/12/07 02:46:06;;;;;;;3.70;2.50;;;;;;;2.30;100.00;93596.44;5064015;28;20044;-75
2021/12/07 02:48:33;;;;;;;3.20;1.52;;;;;;;2.35;100.00;93614.56;5070639;28;20043;-76
2021/12/07 02:51:02;;;;;;;1.67;1.40;;;;;;;2.34;100.00;93617.34;5069183;28;20048;-75
2021/12/07 02:53:33;;;;;;;3.28;1.45;;;;;;;2.25;100.00;93609.09;5070897;28;20033;-75
2021/12/07 02:56:05;;;;;;;2.42;1.75;;;;;;;2.05;100.00;93592.09;5069448;28;20135;-75
2021/12/07 02:58:36;;;;;;;1.80;1.05;;;;;;;1.97;100.00;93612.09;5071446;28;20440;-75
2021/12/07 03:01:12;;;;;;;2.08;1.35;;;;;;;2.03;100.00;93612.03;5070970;28;20076;-75
2021/12/07 03:03:53;;;;;;;3.55;2.13;;;;;;;1.96;100.00;93616.41;5075024;28;20036;-75
2021/12/07 03:06:32;;;;;;;1.05;0.98;;;;;;;1.84;100.00;93594.97;5073220;28;20056;-74
2021/12/07 03:09:41;;;;;;;1.60;1.17;;;;;;;1.89;100.00;93605.41;5069151;28;20052;-75
2021/12/07 03:26:07;;;;;;;2.03;0.90;;;;;;;1.78;100.00;93613.75;5072274;28;20106;-73
2021/12/07 03:28:44;;;;;;;0.90;0.90;;;;;;;1.69;100.00;93605.50;5062714;28;20047;-73
2021/12/07 03:31:15;;;;;;;2.00;1.10;;;;;;;1.75;100.00;93598.75;5074285;28;20058;-74
2021/12/07 03:33:45;;;;;;;3.00;1.08;;;;;;;1.84;100.00;93602.69;5070491;28;20044;-73
2021/12/07 03:36:13;;;;;;;1.25;0.77;;;;;;;1.91;100.00;93606.00;5068876;28;20608;-74
2021/12/07 03:38:42;;;;;;;2.05;1.35;;;;;;;1.96;100.00;93603.56;5074673;28;20048;-75
2021/12/07 03:41:09;;;;;;;1.35;1.15;;;;;;;1.95;100.00;93602.00;5072913;28;20047;-74
2021/12/07 03:43:38;;;;;;;1.25;0.90;;;;;;;1.91;100.00;93603.44;5067507;28;20043;-75
2021/12/07 03:46:06;;;;;;;1.42;0.80;;;;;;;1.89;100.00;93610.53;5070970;28;20074;-75
2021/12/07 03:48:34;;;;;;;1.23;1.13;;;;;;;1.90;100.00;93612.91;5074332;28;20427;-74
2021/12/07 03:51:01;;;;;;;2.10;1.35;;;;;;;1.85;100.00;93614.50;5078372;28;20128;-75
2021/12/07 03:53:29;;;;;;;1.92;1.48;;;;;;;1.88;100.00;93596.13;5077843;28;20432;-75
2021/12/07 03:55:58;;;;;;;2.55;1.58;;;;;;;1.84;100.00;93607.81;5075243;28;20040;-75
2021/12/07 03:58:26;;;;;;;7.03;3.50;;;;;;;1.81;100.00;93608.22;5073373;28;20053;-75
2021/12/07 04:00:53;;;;;;;4.45;2.30;;;;;;;1.78;100.00;93613.75;5074634;28;20139;-74
2021/12/07 04:03:21;;;;;;;3.67;2.00;;;;;;;1.51;100.00;93572.84;5075517;28;20039;-74
2021/12/07 04:05:52;;;;;;;3.22;1.70;;;;;;;1.71;100.00;93614.59;5078542;28;20079;-75
2021/12/07 04:08:24;;;;;;;2.28;1.80;;;;;;;1.69;100.00;93611.44;5071819;28;20514;-75
2021/12/07 04:10:54;;;;;;;3.13;1.85;;;;;;;1.69;100.00;93601.19;5075565;28;20045;-75
2021/12/07 04:13:22;;;;;;;6.40;3.22;;;;;;;1.64;100.00;93608.72;5074085;28;20056;-75
2021/12/07 04:15:50;;;;;;;7.15;3.38;;;;;;;1.62;100.00;93603.00;5073446;28;20047;-75
2021/12/07 04:18:17;;;;;;;2.90;1.35;;;;;;;1.71;100.00;93606.91;5076825;28;20123;-75
2021/12/07 04:20:45;;;;;;;2.65;1.55;;;;;;;1.68;100.00;93604.72;5070548;28;20088;-75
2021/12/07 04:23:13;;;;;;;2.65;1.67;;;;;;;1.64;100.00;93613.84;5072463;28;20513;-75
2021/12/07 04:25:40;;;;;;;3.10;1.50;;;;;;;1.58;100.00;93619.78;5074314;28;20492;-75
2021/12/07 04:28:10;;;;;;;3.47;1.55;;;;;;;1.48;100.00;93598.94;5078934;28;20500;-76
2021/12/07 04:30:41;;;;;;;1.95;1.23;;;;;;;1.50;100.00;93612.34;5075484;28;20048;-75
2021/12/07 04:33:10;;;;;;;1.13;0.90;;;;;;;1.46;100.00;93611.16;5075526;28;20040;-75
2021/12/07 04:35:40;;;;;;;2.30;1.50;;;;;;;1.46;100.00;93611.16;5073306;28;20127;-74
2021/12/07 04:38:08;;;;;;;1.58;1.45;;;;;;;1.43;100.00;93602.09;5071660;28;20050;-75
2021/12/07 04:40:35;;;;;;;3.13;1.92;;;;;;;1.48;100.00;93611.75;5076646;28;20040;-75
2021/12/07 04:43:04;;;;;;;1.42;1.27;;;;;;;1.42;100.00;93610.75;5078665;28;20047;-74
2021/12/07 04:59:17;;;;;;;1.70;1.38;;;;;;;1.36;100.00;93615.94;5072799;28;20039;-75
2021/12/07 05:01:45;;;;;;;5.93;1.90;;;;;;;1.32;100.00;93620.69;5073559;28;20036;-74
2021/12/07 05:04:18;;;;;;;1.52;1.20;;;;;;;1.19;100.00;93605.34;5079394;28;20566;-74
2021/12/07 05:06:51;;;;;;;2.08;1.35;;;;;;;1.15;100.00;93612.66;5070896;28;20395;-75
2021/12/07 05:14:35;;;;;;;2.22;1.77;;;;;;;1.19;100.00;93611.28;5073583;28;20052;-73
2021/12/07 05:39:05;;;;;;;1.80;1.35;;;;;;;0.73;100.00;93601.91;5076588;28;20066;-75
2021/12/07 05:41:33;;;;;;;3.92;2.45;;;;;;;0.72;100.00;93605.44;5072923;28;20054;-75
2021/12/07 05:44:01;;;;;;;2.28;1.67;;;;;;;0.68;100.00;93604.28;5071430;28;20124;-74
2021/12/07 05:46:28;;;;;;;3.15;1.65;;;;;;;0.66;100.00;93596.78;5076893;28;20040;-74
2021/12/07 05:48:55;;;;;;;3.28;2.78;;;;;;;0.83;100.00;93599.72;5072502;28;20049;-74
2021/12/07 05:51:22;;;;;;;3.25;2.55;;;;;;;0.80;100.00;93610.38;5076862;28;20497;-74
2021/12/07 05:53:49;;;;;;;2.72;2.30;;;;;;;0.74;100.00;93593.25;5071236;28;20058;-74
2021/12/07 05:56:16;;;;;;;2.92;1.98;;;;;;;0.74;100.00;93598.38;5069557;28;20058;-74
2021/12/07 05:58:43;;;;;;;2.65;2.22;;;;;;;0.66;100.00;93601.13;5071418;28;20045;-73
2021/12/07 06:01:10;;;;;;;3.67;1.65;;;;;;;0.63;100.00;93606.66;5074922;28;20040;-75
2021/12/07 06:03:37;;;;;;;3.78;1.35;;;;;;;0.71;100.00;93598.75;5069577;28;20059;-74
2021/12/07 06:06:05;;;;;;;3.20;1.70;;;;;;;0.60;100.00;93591.69;5074990;28;20509;-74
2021/12/07 06:08:32;;;;;;;4.10;2.42;;;;;;;0.70;100.00;93607.44;5075216;28;20040;-75
2021/12/07 06:10:58;;;;;;;3.47;1.98;;;;;;;0.56;100.00;93597.22;5072602;28;20044;-75
2021/12/07 06:13:25;;;;;;;3.63;1.60;;;;;;;0.61;100.00;93596.59;5076473;28;20053;-75
2021/12/07 06:15:53;;;;;;;1.88;1.70;;;;;;;0.63;100.00;93606.66;5075853;28;20049;-75
2021/12/07 06:18:20;;;;;;;2.50;2.00;;;;;;;0.61;100.00;93609.41;5071173;28;20115;-75
2021/12/07 06:20:47;;;;;;;4.90;2.63;;;;;;;0.57;100.00;93598.75;5077659;28;20664;-75
2021/12/07 06:23:16;;;;;;;4.15;2.42;;;;;;;0.55;100.00;93608.44;5072809;28;20501;-75
2021/12/07 06:25:45;;;;;;;2.63;2.03;;;;;;;0.50;100.00;93599.78;5072926;28;20581;-75
2021/12/07 06:28:13;;;;;;;2.03;1.60;;;;;;;0.44;100.00;93598.78;5073474;28;20037;-75
2021/12/07 06:30:45;;;;;;;3.35;2.47;;;;;;;0.41;100.00;93604.31;5075769;28;20048;-75
2021/12/07 06:33:13;;;;;;;7.00;2.92;;;;;;;0.48;100.00;93594.84;5072408;28;20048;-75
2021/12/07 06:35:40;;;;;;;3.22;2.55;;;;;;;0.53;100.00;93605.28;5076525;28;20120;-75
2021/12/07 06:38:08;;;;;;;5.38;3.00;;;;;;;0.50;100.00;93608.22;5076722;28;20043;-75
2021/12/07 06:40:35;;;;;;;4.78;2.45;;;;;;;0.47;100.00;93603.53;5075580;28;20049;-75
2021/12/07 06:43:03;;;;;;;4.55;3.20;;;;;;;0.44;100.00;93603.13;5072427;28;20416;-75
2021/12/07 06:45:31;;;;;;;7.63;3.78;;;;;;;0.42;100.00;93603.34;5071350;28;20071;-75
2021/12/07 06:47:57;;;;;;;5.53;3.67;;;;;;;0.43;100.00;93606.66;5071350;28;20082;-75
2021/12/07 06:50:26;;;;;;;7.00;4.03;;;;;;;0.43;100.00;93607.44;5078765;28;20119;-75
2021/12/07 06:52:53;;;;;;;7.03;3.72;;;;;;;0.40;100.00;93586.56;5075333;28;20541;-75
2021/12/07 06:55:21;;;;;;;5.45;3.67;;;;;;;0.46;100.00;93601.94;5070811;28;20039;-74
2021/12/07 06:57:49;;;;;;;9.68;5.00;;;;;;;0.43;100.00;93602.31;5075209;28;20036;-74
2021/12/07 07:00:18;;;;;;;8.30;4.72;;;;;;;0.42;100.00;93594.88;5075980;28;20047;-74
2021/12/07 07:02:44;;;;;;;10.60;4.82;;;;;;;0.31;100.00;93578.31;5072758;28;20417;-74
2021/12/07 07:05:12;;;;;;;16.42;5.80;;;;;;;0.34;100.00;93588.16;5072852;28;20044;-74
2021/12/07 07:07:41;;;;;;;9.00;5.95;;;;;;;0.40;100.00;93597.63;5069747;28;20157;-74
2021/12/07 07:10:11;;;;;;;4.82;3.00;;;;;;;0.38;100.00;93594.47;5071959;28;20052;-74
2021/12/07 07:12:39;;;;;;;12.13;6.90;;;;;;;0.36;100.00;93586.19;5073494;28;20048;-73
2021/12/07 07:15:08;;;;;;;12.27;5.82;;;;;;;0.32;100.00;93585.78;5072863;28;20032;-73
2021/12/07 07:17:35;;;;;;;7.53;5.28;;;;;;;0.16;100.00;93575.94;5068682;28;20531;-73
2021/12/07 07:20:05;;;;;;;9.57;4.13;;;;;;;0.25;100.00;93589.34;5067075;28;20047;-74
2021/12/07 07:22:32;;;;;;;4.47;2.58;;;;;;;0.25;100.00;93591.91;5085409;28;20132;-74
2021/12/07 07:24:59;;;;;;;4.38;3.10;;;;;;;0.23;100.00;93596.44;5069830;28;20047;-74
2021/12/07 07:27:26;;;;;;;3.10;2.63;;;;;;;0.23;100.00;93597.22;5070782;28;20047;-73
2021/12/07 07:29:53;;;;;;;3.90;3.10;;;;;;;0.12;100.00;93593.47;5068685;28;20045;-74
2021/12/07 07:32:20;;;;;;;5.70;3.72;;;;;;;0.11;100.00;93594.47;5063629;28;20043;-74
2021/12/07 07:34:47;;;;;;;2.60;2.35;;;;;;;0.05;100.00;93589.34;5070891;28;20602;-74
2021/12/07 07:37:14;;;;;;;4.18;3.15;;;;;;;0.10;100.00;93586.97;5065737;28;20044;-75
2021/12/07 07:39:41;;;;;;;6.10;4.15;;;;;;;0.08;100.00;93588.97;5070708;28;20051;-75
2021/12/07 07:42:10;;;;;;;13.80;8.05;;;;;;;0.01;100.00;93588.94;5067020;28;20131;-75
2021/12/07 07:44:49;;;;;;;7.40;4.00;;;;;;;0.00;100.00;93577.16;5068505;28;20561;-75
2021/12/07 07:47:15;;;;;;;7.03;3.72;;;;;;;-0.03;100.00;93587.78;5071029;28;20505;-75
2021/12/07 07:49:42;;;;;;;6.95;3.97;;;;;;;-0.08;100.00;93585.78;5067820;28;20048;-75
2021/12/07 07:52:09;;;;;;;8.95;4.82;;;;;;;-0.06;100.00;93583.03;5070315;28;20044;-75
2021/12/07 07:54:36;;;;;;;10.20;5.50;;;;;;;-0.08;100.00;93574.75;5070544;28;20695;-75
2021/12/07 07:57:03;;;;;;;7.28;4.47;;;;;;;-0.23;100.00;93578.28;5071945;28;20086;-75
2021/12/07 07:59:30;;;;;;;8.75;4.50;;;;;;;-0.08;100.00;93585.00;5070591;28;20040;-75
2021/12/07 08:01:57;;;;;;;7.05;4.30;;;;;;;-0.12;100.00;93568.47;5071879;28;20497;-75
2021/12/07 08:04:25;;;;;;;4.72;3.30;;;;;;;-0.12;100.00;93576.16;5072983;28;20032;-76
2021/12/07 08:06:52;;;;;;;5.85;4.35;;;;;;;-0.16;100.00;93577.50;5072206;28;20154;-76
2021/12/07 08:09:19;;;;;;;7.70;2.85;;;;;;;-0.16;100.00;93585.19;5077129;28;20592;-76
2021/12/07 08:11:46;;;;;;;6.30;4.25;;;;;;;-0.16;100.00;93572.38;5072208;28;20477;-76
2021/12/07 08:14:15;;;;;;;10.65;4.38;;;;;;;-0.07;100.00;93582.25;5072325;28;20048;-77
2021/12/07 08:16:43;;;;;;;5.25;3.95;;;;;;;-0.08;100.00;93590.13;5072805;28;20746;-77
2021/12/07 08:19:10;;;;;;;4.65;3.42;;;;;;;-0.17;100.00;93591.28;5072075;28;20485;-78
2021/12/07 08:21:37;;;;;;;5.75;3.50;;;;;;;-0.17;100.00;93596.41;5074489;28;20068;-76
2021/12/07 08:24:04;;;;;;;11.70;4.88;;;;;;;-0.16;100.00;93603.09;5070993;28;20036;-76
2021/12/07 08:26:32;;;;;;;8.75;5.13;;;;;;;-0.31;100.00;93586.13;5075709;28;20051;-77
2021/12/07 08:28:59;;;;;;;10.63;6.82;;;;;;;-0.30;100.00;93586.94;5067719;28;20041;-76
2021/12/07 08:31:28;;;;;;;7.50;4.55;;;;;;;-0.21;100.00;93601.91;5064926;28;20048;-76
2021/12/07 08:33:55;;;;;;;7.50;4.63;;;;;;;-0.20;100.00;93607.81;5068002;28;20056;-78
2021/12/07 08:36:22;;;;;;;6.47;5.07;;;;;;;-0.20;100.00;93603.50;5068067;28;20044;-77
2021/12/07 08:38:50;;;;;;;19.20;7.28;;;;;;;-0.21;100.00;93612.16;5075470;28;20660;-77
2021/12/07 08:41:17;;;;;;;9.95;6.72;;;;;;;-0.23;100.00;93601.31;5078794;28;20044;-78
2021/12/07 08:43:49;;;;;;;12.60;6.93;;;;;;;-0.20;100.00;93612.94;5077278;28;20052;-78
2021/12/07 08:46:17;;;;;;;10.80;6.30;;;;;;;-0.24;100.00;93609.97;5076489;28;20028;-78
2021/12/07 08:48:44;;;;;;;15.45;6.70;;;;;;;-0.26;100.00;93614.50;5074651;28;20505;-78
2021/12/07 08:51:13;;;;;;;7.47;4.28;;;;;;;-0.30;100.00;93610.75;5073137;28;20101;-78
2021/12/07 08:53:50;;;;;;;9.90;4.75;;;;;;;-0.28;100.00;93611.34;5076226;28;20059;-77
2021/12/07 09:01:52;;;;;;;3.80;3.05;;;;;;;-0.27;100.00;93612.94;5073871;28;20049;-78
2021/12/07 09:04:20;;;;;;;5.68;3.58;;;;;;;-0.24;100.00;93611.75;5083240;28;20043;-78
2021/12/07 09:06:48;;;;;;;7.15;4.88;;;;;;;-0.25;100.00;93605.84;5081176;28;20051;-78
2021/12/07 09:09:15;;;;;;;13.82;7.00;;;;;;;-0.23;100.00;93608.22;5074440;28;20056;-78
2021/12/07 09:11:43;;;;;;;12.65;4.50;;;;;;;-0.27;100.00;93601.88;5079526;28;20048;-77
2021/12/07 09:14:13;;;;;;;3.42;2.33;;;;;;;-0.27;100.00;93612.94;5079170;28;20044;-77
2021/12/07 09:16:44;;;;;;;6.18;3.17;;;;;;;-0.24;100.00;93607.41;5079624;28;20119;-77
2021/12/07 09:19:12;;;;;;;8.57;4.43;;;;;;;-0.24;100.00;93607.41;5075414;28;20063;-77
2021/12/07 09:21:40;;;;;;;7.90;4.45;;;;;;;-0.17;100.00;93607.44;5076762;28;20419;-76
2021/12/07 09:24:11;;;;;;;15.18;9.00;;;;;;;-0.18;100.00;93611.00;5077370;28;20096;-77
2021/12/07 09:26:38;;;;;;;13.98;7.40;;;;;;;-0.17;100.00;93601.53;5075062;28;20040;-76
2021/12/07 09:29:06;;;;;;;6.00;4.97;;;;;;;-0.27;100.00;93607.81;5076688;28;20454;-75
2021/12/07 09:31:34;;;;;;;5.43;3.58;;;;;;;-0.24;100.00;93607.41;5071881;28;20128;-75
2021/12/07 09:34:02;;;;;;;5.93;3.83;;;;;;;-0.30;100.00;93605.63;5075171;28;20456;-77
2021/12/07 09:36:30;;;;;;;5.63;3.67;;;;;;;-0.24;100.00;93597.16;5071574;28;20039;-75
2021/12/07 09:38:57;;;;;;;5.47;4.40;;;;;;;-0.27;100.00;93582.22;5069021;28;20425;-76
2021/12/07 09:41:24;;;;;;;5.75;4.13;;;;;;;-0.16;100.00;93587.72;5074215;28;20040;-75
2021/12/07 09:43:51;;;;;;;5.50;3.78;;;;;;;-0.24;100.00;93586.16;5076072;28;20044;-74
2021/12/07 09:46:18;;;;;;;6.78;4.18;;;;;;;-0.25;100.00;93590.50;5072199;28;20044;-76
2021/12/07 09:48:46;;;;;;;6.30;3.70;;;;;;;-0.32;100.00;93579.47;5073559;28;20047;-77
2021/12/07 09:51:16;;;;;;;5.45;3.67;;;;;;;-0.31;100.00;93601.50;5075536;28;20060;-78
2021/12/07 09:53:46;;;;;;;4.95;3.78;;;;;;;-0.46;100.00;93575.28;5076588;28;20050;-77
2021/12/07 09:56:15;;;;;;;7.10;3.30;;;;;;;-0.25;100.00;93600.72;5071531;28;20052;-77
2021/12/07 09:58:42;;;;;;;10.90;3.42;;;;;;;-0.27;100.00;93592.47;5071271;28;20044;-78
2021/12/07 10:01:10;;;;;;;3.97;2.90;;;;;;;-0.29;100.00;93599.56;5067949;28;20078;-77
2021/12/07 10:03:38;;;;;;;7.38;5.10;;;;;;;-0.26;100.00;93609.38;5066594;28;20044;-75
2021/12/07 10:06:07;;;;;;;9.48;4.70;;;;;;;-0.31;100.00;93609.16;5076156;28;20072;-75
2021/12/07 10:08:35;;;;;;;5.90;4.03;;;;;;;-0.23;100.00;93609.00;5068428;28;20043;-76
2021/12/07 10:11:06;;;;;;;6.95;3.72;;;;;;;-0.48;100.00;93585.72;5073559;28;20052;-75
2021/12/07 10:13:34;;;;;;;6.57;4.45;;;;;;;-0.34;100.00;93599.34;5074300;28;20049;-74
2021/12/07 10:16:06;;;;;;;5.63;3.60;;;;;;;-0.32;100.00;93594.81;5070475;28;20052;-75
2021/12/07 10:18:36;;;;;;;5.15;3.75;;;;;;;-0.37;100.00;93581.81;5072036;28;20052;-74
2021/12/07 10:21:26;;;;;;;6.93;4.22;;;;;;;-0.29;100.00;93594.44;5073553;28;20072;-76
2021/12/07 10:23:59;;;;;;;5.63;3.42;;;;;;;-0.33;100.00;93593.22;5070936;28;20055;-75
2021/12/07 10:26:29;;;;;;;6.25;4.00;;;;;;;-0.29;100.00;93584.19;5072540;28;20433;-75
2021/12/07 10:29:08;;;;;;;5.82;3.45;;;;;;;-0.31;100.00;93586.13;5074340;28;20426;-75
2021/12/07 10:31:43;;;;;;;5.78;3.58;;;;;;;-0.25;100.00;93570.03;5074065;28;20880;-76
2021/12/07 10:34:20;;;;;;;7.72;4.72;;;;;;;-0.42;100.00;93558.56;5072602;28;20048;-76
2021/12/07 10:36:48;;;;;;;7.53;3.92;;;;;;;-0.24;100.00;93571.59;5068364;28;20052;-74
2021/12/07 10:39:24;;;;;;;8.73;4.18;;;;;;;-0.26;100.00;93573.56;5070590;28;20072;-74
2021/12/07 10:41:57;;;;;;;6.18;3.10;;;;;;;-0.34;100.00;93580.63;5069692;28;20148;-72
2021/12/07 10:44:43;;;;;;;7.85;4.72;;;;;;;-0.42;100.00;93544.00;5070951;28;20040;-72
2021/12/07 10:47:13;;;;;;;5.05;3.75;;;;;;;-0.23;100.00;93573.16;5065956;28;20485;-75
2021/12/07 10:49:43;;;;;;;6.78;4.30;;;;;;;-0.21;100.00;93571.19;5067919;28;20128;-75
2021/12/07 10:52:29;;;;;;;8.98;5.07;;;;;;;-0.22;100.00;93579.88;5074551;28;20078;-73
2021/12/07 10:55:05;;;;;;;7.95;4.32;;;;;;;-0.22;100.00;93574.75;5067248;28;20051;-73
2021/12/07 10:57:54;;;;;;;8.10;3.70;;;;;;;-0.29;100.00;93550.94;5064568;28;20130;-74
2021/12/07 11:00:30;;;;;;;6.28;4.18;;;;;;;-0.16;100.00;93562.94;5075809;28;20497;-74
2021/12/07 11:03:02;;;;;;;7.07;3.80;;;;;;;-0.27;100.00;93555.84;5064202;28;20059;-76
2021/12/07 11:05:36;;;;;;;6.68;3.58;;;;;;;-0.32;100.00;93548.75;5071653;28;20059;-76
2021/12/07 11:08:06;;;;;;;7.95;4.88;;;;;;;-0.41;100.00;93539.69;5064440;28;20136;-75
2021/12/07 11:10:37;;;;;;;8.00;3.97;;;;;;;-0.27;100.00;93556.63;5074674;28;20051;-75
2021/12/07 11:13:33;;;;;;;5.82;3.88;;;;;;;-0.36;100.00;93532.22;5072225;28;20532;-75
2021/12/07 11:16:10;;;;;;;4.45;3.30;;;;;;;-0.39;100.00;93532.59;5064123;28;20052;-75
2021/12/07 11:18:42;;;;;;;4.57;3.13;;;;;;;-0.36;100.00;93542.47;5073280;28;20047;-74
2021/12/07 11:21:12;;;;;;;10.43;5.75;;;;;;;-0.29;100.00;93550.94;5062329;28;20088;-75
2021/12/07 11:23:52;;;;;;;4.57;3.05;;;;;;;-0.37;100.00;93540.09;5068944;28;20040;-75
2021/12/07 11:31:52;;;;;;;7.00;4.30;;;;;;;-0.43;100.00;93559.56;5065288;28;20570;-74
2021/12/07 11:34:29;;;;;;;5.93;4.13;;;;;;;-0.41;100.00;93549.94;5063027;28;20043;-73
2021/12/07 11:37:09;;;;;;;7.53;3.67;;;;;;;-0.33;100.00;93547.16;5063911;28;20059;-73
2021/12/07 11:39:50;;;;;;;6.75;3.90;;;;;;;-0.32;100.00;93546.19;5062290;28;20047;-73
2021/12/07 11:42:19;;;;;;;7.00;4.10;;;;;;;-0.37;100.00;93553.66;5063632;28;20048;-73
2021/12/07 11:44:52;;;;;;;4.57;2.92;;;;;;;-0.40;100.00;93533.59;5059091;28;20079;-73
2021/12/07 11:47:35;;;;;;;6.60;4.28;;;;;;;-0.42;100.00;93538.09;5070154;28;20054;-73
2021/12/07 11:50:17;;;;;;;7.45;3.88;;;;;;;-0.43;100.00;93552.69;5075955;28;20043;-73
2021/12/07 11:52:45;;;;;;;8.40;4.13;;;;;;;-0.40;100.00;93543.81;5074934;28;20054;-73
2021/12/07 11:55:12;;;;;;;5.88;3.70;;;;;;;-0.41;100.00;93550.72;5065388;28;20494;-73
2021/12/07 11:57:40;;;;;;;5.25;2.72;;;;;;;-0.49;100.00;93542.41;5066524;28;20075;-74
2021/12/07 12:00:11;;;;;;;5.35;3.58;;;;;;;-0.39;100.00;93568.44;5063793;28;20473;-74
2021/12/07 12:02:39;;;;;;;4.75;3.33;;;;;;;-0.39;100.00;93555.63;5061545;28;20059;-73
2021/12/07 12:05:07;;;;;;;5.65;3.67;;;;;;;-0.35;100.00;93558.59;5067039;28;20312;-73
2021/12/07 12:07:36;;;;;;;8.88;4.30;;;;;;;-0.46;100.00;93568.41;5069662;28;20052;-74
2021/12/07 12:10:04;;;;;;;14.02;7.57;;;;;;;-0.53;100.00;93547.13;5072993;28;20123;-74
2021/12/07 12:13:20;;;;;;;7.18;3.10;;;;;;;-0.48;100.00;93554.25;5072159;28;20127;-73
2021/12/07 12:16:15;;;;;;;10.02;5.25;;;;;;;-0.47;100.00;93560.91;5050973;28;20471;-75
2021/12/07 12:18:45;;;;;;;12.32;6.57;;;;;;;-0.52;100.00;93560.72;5070973;28;20037;-76
2021/12/07 12:21:29;;;;;;;7.18;4.07;;;;;;;-0.47;100.00;93560.91;5077630;28;20090;-74
2021/12/07 12:24:08;;;;;;;8.43;3.97;;;;;;;-0.51;100.00;93549.50;5076350;28;20036;-74
2021/12/07 12:26:36;;;;;;;4.90;3.10;;;;;;;-0.49;100.00;93552.66;5069219;28;20433;-73
2021/12/07 12:29:23;;;;;;;5.53;4.18;;;;;;;-0.54;100.00;93544.78;5068786;28;20426;-74
2021/12/07 12:31:56;;;;;;;9.55;5.80;;;;;;;-0.53;100.00;93526.69;5069523;28;20465;-74
2021/12/07 12:34:27;;;;;;;3.67;2.90;;;;;;;-0.45;100.00;93533.38;5065771;28;20114;-74
2021/12/07 12:37:17;;;;;;;7.55;4.93;;;;;;;-0.37;100.00;93534.97;5068721;28;20041;-73
2021/12/07 12:39:58;;;;;;;6.30;4.20;;;;;;;-0.34;100.00;93530.25;5070945;28;20044;-75
2021/12/07 12:42:48;;;;;;;7.63;4.10;;;;;;;-0.36;100.00;93531.41;5071375;28;20064;-73
2021/12/07 12:45:22;;;;;;;8.70;4.22;;;;;;;-0.39;100.00;93542.84;5067271;28;20031;-72
2021/12/07 12:48:17;;;;;;;4.97;3.60;;;;;;;-0.38;100.00;93544.41;5069287;28;20036;-73
2021/12/07 12:50:50;;;;;;;4.90;2.95;;;;;;;-0.45;100.00;93552.09;5062835;28;20433;-74
2021/12/07 12:53:21;;;;;;;8.90;3.97;;;;;;;-0.42;100.00;93558.56;5071035;28;20060;-73
2021/12/07 12:55:55;;;;;;;9.57;4.43;;;;;;;-0.51;100.00;93549.50;5070992;28;20036;-73
2021/12/07 12:58:42;;;;;;;5.25;2.92;;;;;;;-0.51;100.00;93550.28;5072593;28;20043;-73
2021/12/07 13:01:30;;;;;;;4.72;3.72;;;;;;;-0.48;100.00;93559.34;5066037;28;20090;-73
2021/12/07 13:04:12;;;;;;;4.00;2.75;;;;;;;-0.51;100.00;93539.28;5073600;28;20044;-72
2021/12/07 13:06:47;;;;;;;6.30;4.32;;;;;;;-0.51;100.00;93541.84;5068751;28;20802;-73
2021/12/07 13:09:17;;;;;;;10.77;3.88;;;;;;;-0.52;100.00;93547.91;5067987;28;20036;-72
2021/12/07 13:11:55;;;;;;;5.28;3.65;;;;;;;-0.53;100.00;93556.59;5073265;28;20049;-73
2021/12/07 13:14:22;;;;;;;4.60;3.28;;;;;;;-0.47;100.00;93553.25;5067396;28;20541;-73
2021/12/07 13:16:59;;;;;;;6.07;4.03;;;;;;;-0.57;100.00;93545.19;5070602;28;20048;-73
2021/12/07 13:19:28;;;;;;;7.95;4.22;;;;;;;-0.55;100.00;93545.78;5072304;28;20056;-73
2021/12/07 13:22:04;;;;;;;4.57;3.53;;;;;;;-0.62;100.00;93543.19;5068080;28;20519;-74
2021/12/07 13:24:33;;;;;;;6.47;3.33;;;;;;;-0.52;100.00;93558.16;5067551;28;20496;-73
2021/12/07 13:27:11;;;;;;;4.03;2.25;;;;;;;-0.52;100.00;93555.59;5070600;28;20046;-73
2021/12/07 13:29:52;;;;;;;6.03;3.67;;;;;;;-0.54;100.00;93555.00;5066290;28;20071;-73
2021/12/07 13:32:19;;;;;;;3.42;2.20;;;;;;;-0.64;100.00;93540.81;5063917;28;20049;-73